Time;durP1;ratioP1;P1;durP2;ratioP2;P2;SDS_P1;SDS_P2;PMS_P1;PMS_P2;Temp;Humidity;BMP_temperature;BMP_pressure;BME280_temperature;BME280_humidity;BME280_pressure;Samples;Min_cycle;Max_cycle;Signal;HPM_P1;HPM_P2
2024/02/19 00:01:33;;;;;;;13.30;6.60;;;;;;;1.95;81.15;97415.56;108739;1271;22518;-73
2024/02/19 00:04:07;;;;;;;9.20;5.30;;;;;;;1.93;80.91;97416.48;108694;1271;22634;-72
2024/02/19 00:06:39;;;;;;;12.20;5.90;;;;;;;1.92;80.86;97413.06;108769;1271;22756;-73
2024/02/19 00:09:10;;;;;;;11.90;5.90;;;;;;;1.95;80.77;97415.15;108734;1271;22581;-72
2024/02/19 00:11:43;;;;;;;13.10;7.10;;;;;;;1.94;80.42;97415.52;108721;1271;22535;-72
2024/02/19 00:14:15;;;;;;;9.90;5.10;;;;;;;1.87;80.52;97410.48;108742;1271;22531;-73
2024/02/19 00:16:48;;;;;;;11.50;6.80;;;;;;;1.88;80.49;97404.11;108596;1268;166169;-73
2024/02/19 00:19:21;;;;;;;11.70;6.60;;;;;;;1.90;80.55;97401.86;108685;1271;22545;-73
2024/02/19 00:21:52;;;;;;;9.50;5.90;;;;;;;1.95;80.36;97396.13;108714;1271;24228;-73
2024/02/19 00:24:23;;;;;;;10.10;5.50;;;;;;;1.99;80.33;97393.03;108697;1267;25412;-72
2024/02/19 00:26:54;;;;;;;11.00;6.20;;;;;;;2.00;80.18;97388.73;108748;1271;22524;-72
2024/02/19 00:29:25;;;;;;;11.00;6.70;;;;;;;1.95;80.13;97385.10;108737;1271;22555;-73
2024/02/19 00:31:57;;;;;;;9.80;6.90;;;;;;;2.00;80.21;97377.02;108786;1267;24412;-73
2024/02/19 00:34:28;;;;;;;9.60;5.80;;;;;;;2.04;80.20;97374.92;108644;1272;22540;-73
2024/02/19 00:36:59;;;;;;;10.40;7.50;;;;;;;2.04;80.03;97374.35;108719;1271;24256;-73
2024/02/19 00:39:32;;;;;;;8.60;5.80;;;;;;;2.07;80.27;97368.66;108685;1267;22557;-73
2024/02/19 00:42:09;;;;;;;9.60;6.70;;;;;;;2.12;80.19;97365.00;108758;1271;22514;-73
2024/02/19 00:44:41;;;;;;;9.00;6.10;;;;;;;2.15;80.13;97364.83;108698;1271;25274;-73
2024/02/19 00:47:12;;;;;;;8.10;5.00;;;;;;;2.24;80.26;97355.66;108740;1272;22545;-73
2024/02/19 00:49:43;;;;;;;9.10;6.50;;;;;;;2.31;80.25;97355.67;108736;1271;22638;-73
2024/02/19 00:52:17;;;;;;;10.60;4.80;;;;;;;2.42;80.08;97349.00;108707;1271;22548;-73
2024/02/19 00:54:48;;;;;;;7.40;5.10;;;;;;;2.46;79.82;97350.19;108749;1271;25407;-73
2024/02/19 00:57:19;;;;;;;8.60;4.70;;;;;;;2.50;79.77;97347.02;108763;1271;22514;-73
2024/02/19 00:59:50;;;;;;;10.60;5.20;;;;;;;2.56;79.58;97348.70;108745;1270;24487;-73
2024/02/19 01:02:21;;;;;;;10.30;6.20;;;;;;;2.54;79.48;97343.95;108709;1271;22548;-73
2024/02/19 01:04:56;;;;;;;10.10;6.50;;;;;;;2.51;79.32;97335.58;108771;1271;25395;-73
2024/02/19 01:07:27;;;;;;;10.30;6.40;;;;;;;2.53;79.42;97334.96;108754;1266;23203;-73
2024/02/19 01:09:59;;;;;;;8.90;5.40;;;;;;;2.54;79.21;97333.61;108727;1267;23540;-73
2024/02/19 01:12:30;;;;;;;11.10;7.70;;;;;;;2.53;79.24;97327.96;108710;1267;22572;-73
2024/02/19 01:15:03;;;;;;;10.20;5.60;;;;;;;2.51;79.19;97323.05;108744;1253;25419;-72
2024/02/19 01:17:34;;;;;;;10.90;6.80;;;;;;;2.53;79.18;97325.84;108777;1267;22542;-73
2024/02/19 01:20:15;;;;;;;11.70;7.60;;;;;;;2.53;79.18;97325.35;108713;1268;22529;-73
2024/02/19 01:22:46;;;;;;;9.80;5.10;;;;;;;2.53;79.11;97323.45;108723;1267;25246;-73
2024/02/19 01:25:19;;;;;;;8.70;6.10;;;;;;;2.55;79.05;97326.00;108770;1251;25422;-73
2024/02/19 01:27:50;;;;;;;11.20;7.00;;;;;;;2.53;79.02;97327.11;108719;1265;22534;-73
2024/02/19 01:30:22;;;;;;;12.40;7.10;;;;;;;2.54;79.06;97321.56;108719;1271;22532;-73
2024/02/19 01:32:55;;;;;;;11.00;6.80;;;;;;;2.55;79.07;97321.77;108745;1272;22542;-73
2024/02/19 01:35:26;;;;;;;10.50;6.50;;;;;;;2.55;78.99;97316.13;108689;1271;22527;-73
2024/02/19 01:37:57;;;;;;;10.70;6.80;;;;;;;2.58;78.87;97314.66;108710;1271;22648;-73
2024/02/19 01:40:29;;;;;;;12.60;7.50;;;;;;;2.57;78.79;97310.60;108687;1271;24225;-73
2024/02/19 01:43:07;;;;;;;12.20;7.70;;;;;;;2.55;78.64;97309.45;108767;1271;22534;-73
2024/02/19 01:45:39;;;;;;;11.60;7.70;;;;;;;2.46;78.59;97305.42;108785;1269;22527;-72
2024/02/19 01:48:13;;;;;;;12.70;7.80;;;;;;;2.37;78.59;97297.41;108717;1267;22713;-73
2024/02/19 01:50:48;;;;;;;11.70;7.80;;;;;;;2.31;78.56;97293.30;108737;1271;22554;-73
2024/02/19 01:53:20;;;;;;;12.50;7.80;;;;;;;2.26;78.62;97287.70;108745;1266;22539;-73
2024/02/19 01:55:52;;;;;;;10.10;6.10;;;;;;;2.25;78.75;97285.55;108750;1271;24222;-72
2024/02/19 01:58:23;;;;;;;10.50;5.80;;;;;;;2.23;78.95;97284.02;108681;1271;22636;-72
2024/02/19 02:00:58;;;;;;;8.60;5.40;;;;;;;2.24;79.12;97278.17;108757;1264;22530;-73
2024/02/19 02:03:32;;;;;;;12.40;7.30;;;;;;;2.24;79.13;97281.25;108696;1270;22527;-73
2024/02/19 02:06:06;;;;;;;12.00;8.20;;;;;;;2.22;78.96;97285.80;108838;1264;22546;-73
2024/02/19 02:08:40;;;;;;;13.50;8.30;;;;;;;2.17;78.91;97292.19;108719;1271;22531;-73
2024/02/19 02:11:12;;;;;;;11.10;6.20;;;;;;;2.16;79.11;97289.02;108757;1267;25300;-73
2024/02/19 02:13:45;;;;;;;11.60;7.50;;;;;;;2.19;79.22;97286.27;108717;1266;22520;-73
2024/02/19 02:16:26;;;;;;;11.20;6.30;;;;;;;2.21;79.00;97288.42;108715;1267;24248;-73
2024/02/19 02:18:57;;;;;;;12.30;6.90;;;;;;;2.20;79.09;97283.72;108701;1267;24100;-73
2024/02/19 02:21:28;;;;;;;15.30;6.40;;;;;;;2.18;78.96;97285.30;108729;1271;22534;-72
2024/02/19 02:23:59;;;;;;;10.80;7.60;;;;;;;2.11;78.78;97278.90;108727;1271;22556;-73
2024/02/19 02:26:31;;;;;;;13.40;6.30;;;;;;;2.04;78.76;97274.42;108747;1271;22554;-72
2024/02/19 02:29:04;;;;;;;10.90;5.00;;;;;;;1.97;78.88;97274.20;108776;1269;24351;-73
2024/02/19 02:31:36;;;;;;;12.70;8.20;;;;;;;1.92;78.97;97269.87;108729;1271;24181;-73
2024/02/19 02:34:07;;;;;;;13.80;7.70;;;;;;;1.92;79.19;97265.77;108721;1271;22545;-73
2024/02/19 02:36:42;;;;;;;11.00;7.60;;;;;;;1.92;79.30;97260.73;108765;1271;23037;-72
2024/02/19 02:39:14;;;;;;;11.30;7.30;;;;;;;1.92;79.19;97256.92;108786;1271;22616;-73
2024/02/19 02:41:46;;;;;;;9.40;6.90;;;;;;;1.90;79.23;97257.52;108711;1271;22544;-73
2024/02/19 02:44:18;;;;;;;10.90;7.30;;;;;;;1.88;79.31;97252.44;108771;1264;24244;-73
2024/02/19 02:46:50;;;;;;;9.10;6.10;;;;;;;1.89;79.53;97243.17;108722;1271;24671;-73
2024/02/19 02:49:21;;;;;;;11.00;7.30;;;;;;;1.91;79.73;97244.54;108725;1268;22535;-73
2024/02/19 02:51:52;;;;;;;9.10;5.60;;;;;;;1.93;79.61;97241.87;108778;1267;22560;-73
2024/02/19 02:54:23;;;;;;;11.60;7.80;;;;;;;1.91;79.65;97236.81;108706;1271;22524;-73
2024/02/19 02:56:57;;;;;;;10.30;7.20;;;;;;;1.93;79.70;97232.98;108736;1271;22543;-73
2024/02/19 02:59:28;;;;;;;10.30;6.60;;;;;;;1.95;79.71;97231.27;108688;1271;22576;-73
2024/02/19 03:02:03;;;;;;;13.50;6.70;;;;;;;1.95;80.02;97221.98;108726;1265;22535;-72
2024/02/19 03:04:36;;;;;;;11.30;7.70;;;;;;;1.95;79.91;97217.89;108800;1271;22646;-73
2024/02/19 03:07:07;;;;;;;10.70;7.10;;;;;;;1.92;79.88;97209.86;108684;1271;22514;-73
2024/02/19 03:09:43;;;;;;;9.80;6.60;;;;;;;1.91;80.06;97200.45;108721;1271;25308;-73
2024/02/19 03:12:16;;;;;;;11.40;7.90;;;;;;;1.87;80.31;97197.66;108715;1265;22525;-73
2024/02/19 03:14:48;;;;;;;13.40;8.60;;;;;;;1.84;80.26;97193.58;108686;1271;22538;-73
2024/02/19 03:17:19;;;;;;;13.60;7.10;;;;;;;1.85;80.50;97186.18;108752;1268;22543;-73
2024/02/19 03:19:50;;;;;;;13.40;6.80;;;;;;;1.86;80.45;97172.58;108735;1268;22567;-73
2024/02/19 03:22:25;;;;;;;12.80;6.90;;;;;;;1.90;80.75;97176.48;108720;1267;22557;-72
2024/02/19 03:24:57;;;;;;;14.30;7.00;;;;;;;2.03;80.73;97177.63;108699;1271;22575;-73
2024/02/19 03:27:28;;;;;;;8.40;5.70;;;;;;;2.14;80.78;97173.70;108737;1264;22582;-73
2024/02/19 03:29:59;;;;;;;11.20;7.40;;;;;;;2.18;80.48;97169.81;108698;1265;22547;-73
2024/02/19 03:32:33;;;;;;;10.30;6.30;;;;;;;2.20;80.34;97168.34;108753;1265;22525;-72
2024/02/19 03:35:07;;;;;;;13.40;8.20;;;;;;;2.21;80.28;97163.91;108736;1271;25416;-72
2024/02/19 03:37:42;;;;;;;12.80;7.70;;;;;;;2.22;80.23;97161.45;108743;1271;25352;-72
2024/02/19 03:40:14;;;;;;;10.70;7.20;;;;;;;2.27;80.16;97159.49;108719;1271;22643;-73
2024/02/19 03:42:45;;;;;;;11.30;7.30;;;;;;;2.32;80.27;97158.96;108747;1265;22566;-72
2024/02/19 03:45:18;;;;;;;9.90;6.70;;;;;;;2.39;79.99;97151.55;108738;1271;22736;-73
2024/02/19 03:47:49;;;;;;;11.00;6.50;;;;;;;2.45;79.95;97149.70;108741;1268;22526;-73
2024/02/19 03:50:23;;;;;;;12.40;6.60;;;;;;;2.48;79.69;97149.89;108711;1271;22583;-73
2024/02/19 03:52:57;;;;;;;11.10;7.80;;;;;;;2.45;79.60;97151.11;108732;1271;25352;-73
2024/02/19 03:55:28;;;;;;;12.10;7.60;;;;;;;2.42;79.43;97147.36;108677;1267;22605;-73
2024/02/19 03:57:59;;;;;;;11.10;7.50;;;;;;;2.40;79.38;97147.70;108756;1264;22527;-73
2024/02/19 04:00:31;;;;;;;12.70;6.80;;;;;;;2.34;79.30;97147.00;108690;1271;22563;-73
2024/02/19 04:03:03;;;;;;;11.70;7.50;;;;;;;2.30;79.27;97149.17;108734;1271;22512;-73
2024/02/19 04:05:39;;;;;;;10.20;7.30;;;;;;;2.28;79.30;97145.45;108714;1268;22558;-73
2024/02/19 04:08:12;;;;;;;11.60;7.40;;;;;;;2.27;79.22;97140.23;108704;1271;22518;-73
2024/02/19 04:10:44;;;;;;;9.60;7.00;;;;;;;2.26;79.39;97138.70;108768;1271;22574;-73
2024/02/19 04:13:15;;;;;;;12.10;7.60;;;;;;;2.27;79.34;97135.52;108744;1269;22549;-73
2024/02/19 04:15:46;;;;;;;12.90;8.00;;;;;;;2.26;79.31;97131.38;108717;1271;22540;-73
2024/02/19 04:18:17;;;;;;;11.20;7.90;;;;;;;2.27;79.31;97126.05;108739;1265;23299;-73
2024/02/19 04:20:48;;;;;;;12.00;7.80;;;;;;;2.27;79.34;97125.48;108732;1271;22530;-73
2024/02/19 04:23:22;;;;;;;10.50;7.20;;;;;;;2.30;79.35;97121.61;108771;1269;22561;-73
2024/02/19 04:25:53;;;;;;;14.30;9.20;;;;;;;2.32;79.36;97123.23;108768;1263;22631;-73
2024/02/19 04:28:24;;;;;;;11.70;7.40;;;;;;;2.34;79.23;97117.26;108727;1271;23332;-73
2024/02/19 04:30:55;;;;;;;10.90;7.50;;;;;;;2.35;79.23;97111.70;108724;1266;22562;-73
2024/02/19 04:33:26;;;;;;;11.00;8.00;;;;;;;2.35;79.24;97109.92;108783;1271;22550;-72
2024/02/19 04:35:57;;;;;;;11.80;7.50;;;;;;;2.35;79.29;97103.64;108787;1271;22534;-73
2024/02/19 04:38:29;;;;;;;11.20;8.00;;;;;;;2.36;79.27;97100.69;108752;1271;26620;-73
2024/02/19 04:41:00;;;;;;;11.00;7.10;;;;;;;2.36;79.33;97105.04;108782;1271;22666;-73
2024/02/19 04:43:31;;;;;;;12.80;7.90;;;;;;;2.37;79.30;97098.79;108729;1271;22527;-73
2024/02/19 04:46:02;;;;;;;10.30;7.70;;;;;;;2.38;79.27;97094.11;108773;1271;26229;-72
2024/02/19 04:48:38;;;;;;;12.20;8.00;;;;;;;2.39;79.35;97092.98;108749;1268;22525;-73
2024/02/19 04:51:09;;;;;;;10.50;6.90;;;;;;;2.40;79.34;97093.72;108731;1265;22537;-73
2024/02/19 04:53:42;;;;;;;11.60;7.70;;;;;;;2.43;79.31;97090.39;108744;1264;22548;-72
2024/02/19 04:56:17;;;;;;;10.30;6.50;;;;;;;2.44;79.32;97083.67;108746;1271;25326;-73
2024/02/19 04:58:48;;;;;;;11.50;6.80;;;;;;;2.46;79.37;97078.55;108677;1265;40382;-73
2024/02/19 05:01:19;;;;;;;11.70;7.80;;;;;;;2.48;79.34;97077.45;108697;1267;22514;-73
2024/02/19 05:03:50;;;;;;;12.40;8.30;;;;;;;2.49;79.39;97077.01;108744;1265;22544;-73
2024/02/19 05:06:21;;;;;;;11.60;7.40;;;;;;;2.50;79.42;97081.77;108760;1271;25253;-73
2024/02/19 05:08:53;;;;;;;9.90;7.00;;;;;;;2.52;79.38;97076.80;108737;1271;22532;-73
2024/02/19 05:11:24;;;;;;;11.30;8.60;;;;;;;2.54;79.44;97074.84;108776;1271;25365;-73
2024/02/19 05:13:55;;;;;;;14.60;7.90;;;;;;;2.55;79.43;97078.17;108724;1271;22539;-73
2024/02/19 05:16:26;;;;;;;13.00;7.30;;;;;;;2.56;79.42;97069.86;108746;1271;22706;-73
2024/02/19 05:19:00;;;;;;;10.00;7.30;;;;;;;2.59;79.45;97062.46;108679;1268;23558;-73
2024/02/19 05:21:31;;;;;;;10.60;6.90;;;;;;;2.62;79.39;97058.16;108704;1271;22529;-73
2024/02/19 05:24:03;;;;;;;10.80;7.20;;;;;;;2.65;79.31;97059.60;108784;1268;22640;-73
2024/02/19 05:26:40;;;;;;;10.70;7.10;;;;;;;2.71;79.43;97057.84;108763;1271;24210;-73
2024/02/19 05:29:12;;;;;;;9.70;6.40;;;;;;;2.74;79.28;97055.06;108785;1271;22544;-73
2024/02/19 05:31:46;;;;;;;9.70;7.30;;;;;;;2.78;79.31;97055.02;108758;1271;23104;-73
2024/02/19 05:34:18;;;;;;;11.20;7.10;;;;;;;2.83;79.18;97050.66;108713;1268;25402;-73
2024/02/19 05:36:50;;;;;;;9.10;6.80;;;;;;;2.87;79.18;97048.84;108740;1267;22557;-73
2024/02/19 05:39:21;;;;;;;9.40;5.50;;;;;;;2.90;79.02;97047.63;108728;1271;24235;-72
2024/02/19 05:41:55;;;;;;;9.40;6.20;;;;;;;2.94;78.89;97039.77;108711;1271;22543;-73
2024/02/19 05:44:26;;;;;;;9.70;6.20;;;;;;;3.02;78.82;97024.63;108717;1271;22550;-73
2024/02/19 05:46:57;;;;;;;9.20;6.00;;;;;;;3.08;78.74;97035.47;108767;1271;22692;-73
2024/02/19 05:49:28;;;;;;;9.60;5.80;;;;;;;3.12;78.61;97034.37;108731;1271;22555;-73
2024/02/19 05:51:59;;;;;;;11.10;6.70;;;;;;;3.21;78.39;97026.96;108701;1269;24366;-73
2024/02/19 05:54:31;;;;;;;9.20;4.60;;;;;;;3.29;78.23;97029.69;108758;1271;22532;-73
2024/02/19 05:57:06;;;;;;;9.10;5.60;;;;;;;3.34;78.05;97034.66;108772;1271;22557;-73
2024/02/19 05:59:37;;;;;;;7.30;5.50;;;;;;;3.37;77.91;97029.51;108750;1271;25225;-73
2024/02/19 06:02:08;;;;;;;8.90;5.80;;;;;;;3.40;77.86;97028.78;108758;1271;22630;-74
2024/02/19 06:04:39;;;;;;;8.50;5.40;;;;;;;3.41;77.66;97022.67;108804;1271;25377;-74
2024/02/19 06:07:11;;;;;;;12.60;6.80;;;;;;;3.42;77.85;97025.53;108839;1265;25259;-74
2024/02/19 06:09:45;;;;;;;8.60;5.40;;;;;;;3.50;77.92;97018.96;108755;1265;22673;-74
2024/02/19 06:12:18;;;;;;;9.50;6.20;;;;;;;3.58;77.80;97011.73;108712;1271;22985;-74
2024/02/19 06:14:49;;;;;;;9.60;6.10;;;;;;;3.62;77.81;97012.83;108735;1271;23363;-74
2024/02/19 06:17:20;;;;;;;11.10;7.00;;;;;;;3.69;77.83;97009.99;108756;1271;22560;-74
2024/02/19 06:19:51;;;;;;;10.20;7.00;;;;;;;3.75;77.82;97009.00;108890;1271;25397;-74
2024/02/19 06:22:23;;;;;;;10.90;7.00;;;;;;;3.82;77.64;97012.06;108857;1271;22550;-74
2024/02/19 06:24:56;;;;;;;7.80;6.10;;;;;;;3.86;77.77;97014.69;108860;1271;25260;-74
2024/02/19 06:27:28;;;;;;;11.10;7.00;;;;;;;3.91;77.83;97012.27;108835;1271;22541;-74
2024/02/19 06:29:59;;;;;;;8.50;5.60;;;;;;;3.96;77.83;97010.95;108839;1271;22522;-74
2024/02/19 06:32:30;;;;;;;11.40;6.20;;;;;;;3.99;77.73;97008.48;108834;1265;22552;-74
2024/02/19 06:35:08;;;;;;;10.00;6.10;;;;;;;4.02;77.89;97014.29;108881;1271;22595;-74
2024/02/19 06:37:39;;;;;;;12.00;7.30;;;;;;;4.07;78.09;97016.54;108798;1267;22548;-74
2024/02/19 06:40:14;;;;;;;8.40;6.50;;;;;;;4.11;78.05;97005.34;108793;1271;24488;-74
2024/02/19 06:42:45;;;;;;;10.50;6.50;;;;;;;4.15;77.95;97013.70;108842;1268;22523;-74
2024/02/19 06:45:18;;;;;;;11.70;7.60;;;;;;;4.20;78.12;97011.39;108805;1271;22555;-74
2024/02/19 06:47:50;;;;;;;12.80;7.40;;;;;;;4.25;77.97;97011.98;108835;1271;22548;-74
2024/02/19 06:50:23;;;;;;;10.00;7.60;;;;;;;4.28;78.03;97010.37;108821;1266;22645;-74
2024/02/19 06:52:57;;;;;;;13.00;7.90;;;;;;;4.32;78.05;97006.79;108844;1270;22621;-74
2024/02/19 06:55:28;;;;;;;11.30;7.70;;;;;;;4.34;78.05;97001.67;108835;1265;22559;-74
2024/02/19 06:58:00;;;;;;;10.20;6.60;;;;;;;4.36;78.14;97004.55;108771;1271;22964;-74
2024/02/19 07:00:35;;;;;;;11.40;8.50;;;;;;;4.42;78.15;96998.55;108782;1271;23359;-74
2024/02/19 07:03:08;;;;;;;13.30;8.20;;;;;;;4.50;78.48;97003.98;108828;1264;22549;-74
2024/02/19 07:05:42;;;;;;;10.70;7.50;;;;;;;4.56;78.46;96998.34;108761;1271;25274;-75
2024/02/19 07:08:14;;;;;;;12.60;8.60;;;;;;;4.62;78.43;96996.15;108787;1268;22836;-74
2024/02/19 07:10:46;;;;;;;10.40;7.50;;;;;;;4.67;78.53;96996.48;108719;1265;26516;-75
2024/02/19 07:13:17;;;;;;;12.60;8.70;;;;;;;4.72;78.64;97001.83;108651;1264;22627;-74
2024/02/19 07:15:53;;;;;;;13.10;8.80;;;;;;;4.75;78.53;96994.05;108713;1271;24212;-74
2024/02/19 07:18:25;;;;;;;11.90;8.90;;;;;;;4.74;78.48;96995.61;108729;1271;22520;-74
2024/02/19 07:20:56;;;;;;;11.90;7.70;;;;;;;4.76;78.50;96986.56;108725;1266;28145;-74
2024/02/19 07:23:27;;;;;;;12.10;8.50;;;;;;;4.76;78.34;96986.52;108766;1271;24303;-74
2024/02/19 07:25:59;;;;;;;12.10;8.60;;;;;;;4.76;78.47;96984.94;108781;1265;22539;-74
2024/02/19 07:28:30;;;;;;;13.10;8.00;;;;;;;4.76;78.50;96986.19;108787;1271;22543;-74
2024/02/19 07:31:01;;;;;;;12.20;8.50;;;;;;;4.74;78.36;96982.39;108728;1268;22536;-74
2024/02/19 07:33:34;;;;;;;12.00;9.10;;;;;;;4.73;78.44;96981.83;108748;1271;25370;-74
2024/02/19 07:36:08;;;;;;;14.60;8.70;;;;;;;4.75;78.61;96972.69;108849;1271;22524;-74
2024/02/19 07:38:39;;;;;;;11.90;7.70;;;;;;;4.81;78.73;96972.95;108736;1271;22540;-74
2024/02/19 07:41:18;;;;;;;11.40;7.80;;;;;;;4.89;78.82;96973.27;108715;1271;23798;-75
2024/02/19 07:43:51;;;;;;;11.20;7.80;;;;;;;4.95;78.88;96970.61;108725;1271;23322;-74
2024/02/19 07:46:23;;;;;;;13.40;8.50;;;;;;;4.98;78.94;96971.88;108727;1264;22664;-74
2024/02/19 07:48:54;;;;;;;9.60;6.30;;;;;;;5.02;78.85;96977.58;108689;1268;24821;-75
2024/02/19 07:51:26;;;;;;;11.80;8.70;;;;;;;5.04;78.78;96970.93;108728;1271;22683;-74
2024/02/19 07:54:02;;;;;;;11.80;7.70;;;;;;;5.08;78.94;96968.65;108724;1270;22631;-74
2024/02/19 07:56:36;;;;;;;10.30;7.60;;;;;;;5.17;79.08;96960.20;108726;1271;22603;-74
2024/02/19 07:59:13;;;;;;;13.10;8.50;;;;;;;5.27;78.93;96955.66;108633;1271;22542;-74
2024/02/19 08:01:44;;;;;;;12.00;7.10;;;;;;;5.34;78.94;96955.98;108722;1271;22534;-74
2024/02/19 08:04:18;;;;;;;12.30;7.90;;;;;;;5.33;78.37;96961.45;108726;1271;22543;-74
2024/02/19 08:06:50;;;;;;;13.10;9.00;;;;;;;5.33;78.48;96958.70;108739;1271;22563;-74
2024/02/19 08:09:22;;;;;;;11.60;7.10;;;;;;;5.34;78.21;96957.20;108661;1271;22523;-74
2024/02/19 08:11:54;;;;;;;12.10;8.10;;;;;;;5.35;78.19;96942.09;108704;1271;23096;-74
2024/02/19 08:14:28;;;;;;;14.00;8.80;;;;;;;5.42;78.51;96944.73;108750;1271;22525;-74
2024/02/19 08:16:59;;;;;;;12.40;9.20;;;;;;;5.50;78.36;96943.81;108756;1271;24238;-74
2024/02/19 08:19:32;;;;;;;11.60;8.80;;;;;;;5.65;78.57;96941.25;108741;1271;22541;-74
2024/02/19 08:22:04;;;;;;;11.40;8.00;;;;;;;5.97;78.65;96938.74;108741;1271;24893;-74
2024/02/19 08:24:36;;;;;;;11.30;8.10;;;;;;;6.53;77.83;96921.25;108707;1268;22538;-74
2024/02/19 08:27:08;;;;;;;10.60;7.50;;;;;;;7.22;76.95;96925.86;108734;1271;22515;-75
2024/02/19 08:29:39;;;;;;;13.00;9.80;;;;;;;7.69;75.31;96913.07;108679;1270;23432;-74
2024/02/19 08:32:11;;;;;;;12.00;6.80;;;;;;;7.93;74.13;96925.60;108772;1271;25425;-74
2024/02/19 08:34:45;;;;;;;12.70;9.30;;;;;;;7.56;72.95;96920.98;108829;1271;22666;-74
2024/02/19 08:37:19;;;;;;;16.20;9.20;;;;;;;7.06;72.20;96939.80;108844;1271;23421;-74
2024/02/19 08:39:50;;;;;;;12.40;8.10;;;;;;;6.58;72.43;96927.85;108849;1271;22543;-74
2024/02/19 08:42:22;;;;;;;12.90;8.40;;;;;;;6.20;72.87;96938.61;108876;1265;22804;-74
2024/02/19 08:44:57;;;;;;;9.30;5.60;;;;;;;5.94;73.30;96939.27;108843;1271;22600;-74
2024/02/19 08:47:31;;;;;;;10.10;7.30;;;;;;;5.74;74.01;96936.73;108830;1271;24369;-74
2024/02/19 08:50:05;;;;;;;12.10;8.60;;;;;;;5.70;74.42;96930.61;108780;1265;25260;-74
2024/02/19 08:52:39;;;;;;;13.70;7.60;;;;;;;5.68;75.11;96922.17;108681;1271;22565;-75
2024/02/19 08:55:12;;;;;;;11.70;8.10;;;;;;;5.66;75.31;96924.88;108789;1271;25419;-74
2024/02/19 08:57:45;;;;;;;13.00;8.60;;;;;;;5.67;75.61;96921.58;108682;1271;22540;-75
2024/02/19 09:00:18;;;;;;;11.40;8.20;;;;;;;5.69;75.93;96916.77;108669;1271;22522;-74
2024/02/19 09:02:50;;;;;;;15.60;10.20;;;;;;;5.69;76.13;96916.34;108762;1271;22520;-74
2024/02/19 09:05:22;;;;;;;13.80;8.60;;;;;;;5.73;76.28;96919.66;108711;1271;23067;-74
2024/02/19 09:07:56;;;;;;;12.00;8.50;;;;;;;5.72;76.22;96914.23;108705;1271;24212;-74
2024/02/19 09:10:31;;;;;;;12.40;8.40;;;;;;;5.71;76.32;96914.69;108719;1265;24269;-74
2024/02/19 09:13:03;;;;;;;14.50;10.00;;;;;;;5.69;76.49;96909.02;108761;1265;22537;-74
2024/02/19 09:15:37;;;;;;;12.00;8.10;;;;;;;5.69;76.44;96912.46;108767;1271;22548;-74
2024/02/19 09:18:08;;;;;;;13.00;7.40;;;;;;;5.68;76.64;96918.28;108710;1271;22618;-74
2024/02/19 09:20:41;;;;;;;12.10;9.80;;;;;;;5.72;76.71;96915.50;108722;1266;22568;-74
2024/02/19 09:23:13;;;;;;;13.90;9.50;;;;;;;5.81;76.82;96913.31;108760;1271;22945;-74
2024/02/19 09:25:45;;;;;;;13.10;8.00;;;;;;;5.85;76.66;96915.70;108735;1258;24507;-75
2024/02/19 09:28:18;;;;;;;13.40;8.50;;;;;;;5.86;76.76;96911.50;108644;1265;24304;-74
2024/02/19 09:30:49;;;;;;;16.00;9.10;;;;;;;5.89;76.84;96916.54;108700;1265;25532;-75
2024/02/19 09:33:21;;;;;;;12.90;9.10;;;;;;;5.91;76.90;96905.55;108721;1271;22556;-74
2024/02/19 09:35:55;;;;;;;15.20;8.80;;;;;;;5.92;76.80;96916.11;108723;1265;23148;-75
2024/02/19 09:38:27;;;;;;;10.60;7.80;;;;;;;5.98;76.98;96911.61;108718;1268;25593;-74
2024/02/19 09:41:04;;;;;;;12.60;7.90;;;;;;;6.10;76.99;96916.41;108661;1273;23028;-75
2024/02/19 09:43:35;;;;;;;12.20;9.40;;;;;;;6.23;77.21;96913.73;108635;1268;25403;-74
2024/02/19 09:46:14;;;;;;;12.10;9.30;;;;;;;6.36;77.02;96909.86;108626;1272;22530;-75
2024/02/19 09:48:49;;;;;;;11.50;6.90;;;;;;;6.50;77.02;96907.26;108624;1265;22527;-75
2024/02/19 09:51:21;;;;;;;11.20;6.90;;;;;;;6.57;76.59;96905.64;108710;1268;22520;-74
2024/02/19 09:53:54;;;;;;;13.00;8.10;;;;;;;6.59;76.21;96898.88;108631;1267;25391;-74
2024/02/19 09:56:27;;;;;;;14.20;10.30;;;;;;;6.76;76.75;96895.34;108743;1272;22522;-75
2024/02/19 09:58:59;;;;;;;12.40;9.60;;;;;;;7.25;77.35;96897.10;108583;1265;22526;-75
2024/02/19 10:01:33;;;;;;;13.60;8.80;;;;;;;7.62;75.71;96896.18;108695;1268;22516;-74
2024/02/19 10:04:05;;;;;;;14.50;10.80;;;;;;;7.57;74.48;96890.06;108593;1268;27565;-75
2024/02/19 10:06:37;;;;;;;14.00;9.50;;;;;;;7.49;73.99;96888.47;108659;1264;24236;-75
2024/02/19 10:09:14;;;;;;;13.70;8.10;;;;;;;7.33;74.18;96897.88;108571;1272;25380;-74
2024/02/19 10:11:47;;;;;;;12.10;9.40;;;;;;;7.15;73.81;96893.75;108635;1272;22527;-74
2024/02/19 10:14:18;;;;;;;11.80;8.60;;;;;;;7.06;74.07;96900.73;108591;1270;22978;-72
2024/02/19 10:16:54;;;;;;;13.40;9.60;;;;;;;6.97;74.07;96892.57;108658;1272;24245;-75
2024/02/19 10:19:26;;;;;;;12.20;9.00;;;;;;;6.89;74.24;96886.10;108626;1268;22528;-74
2024/02/19 10:21:58;;;;;;;14.20;10.00;;;;;;;6.78;74.37;96887.20;108670;1272;23009;-74
2024/02/19 10:24:32;;;;;;;13.50;10.70;;;;;;;6.74;74.73;96881.29;108631;1268;22529;-75
2024/02/19 10:27:06;;;;;;;13.90;10.10;;;;;;;6.72;74.75;96873.64;108601;1268;22531;-74
2024/02/19 10:29:42;;;;;;;11.80;8.00;;;;;;;6.67;74.71;96869.01;108652;1268;22548;-75
2024/02/19 10:32:14;;;;;;;11.80;8.90;;;;;;;6.68;75.09;96869.91;108642;1272;22530;-74
2024/02/19 10:34:45;;;;;;;13.80;9.70;;;;;;;6.73;75.25;96862.54;108630;1272;22541;-74
2024/02/19 10:37:16;;;;;;;13.00;10.00;;;;;;;6.76;75.15;96859.63;108657;1266;22544;-75
2024/02/19 10:39:49;;;;;;;15.00;8.00;;;;;;;6.76;75.20;96870.38;108610;1270;22523;-74
2024/02/19 10:42:23;;;;;;;12.70;9.50;;;;;;;6.76;75.12;96875.69;108655;1265;22529;-74
2024/02/19 10:44:55;;;;;;;12.80;7.10;;;;;;;6.74;75.24;96872.97;108623;1272;22532;-75
2024/02/19 10:47:27;;;;;;;13.40;9.10;;;;;;;6.70;75.15;96866.55;108743;1271;22546;-75
2024/02/19 10:50:04;;;;;;;12.60;8.70;;;;;;;6.65;75.10;96852.91;108677;1270;22538;-74
2024/02/19 10:52:39;;;;;;;11.90;8.50;;;;;;;6.62;75.40;96855.19;108744;1268;24834;-74
2024/02/19 10:55:16;;;;;;;11.70;7.60;;;;;;;6.69;75.58;96845.79;108687;1272;22544;-75
2024/02/19 10:57:49;;;;;;;12.80;9.30;;;;;;;6.77;75.71;96853.69;108624;1273;25305;-75
2024/02/19 11:00:26;;;;;;;12.50;7.10;;;;;;;6.83;75.66;96847.04;108604;1265;22646;-74
2024/02/19 11:03:15;;;;;;;13.00;9.30;;;;;;;6.86;75.73;96846.16;108676;1266;22604;-75
2024/02/19 11:05:48;;;;;;;11.50;7.40;;;;;;;6.96;75.77;96841.48;108644;1272;22537;-74
2024/02/19 11:08:23;;;;;;;10.60;7.90;;;;;;;7.05;75.72;96845.73;108668;1268;22536;-75
2024/02/19 11:10:57;;;;;;;11.00;8.30;;;;;;;7.15;75.67;96848.66;108563;1273;24301;-75
2024/02/19 11:13:29;;;;;;;10.10;6.70;;;;;;;7.23;75.52;96851.12;108595;1268;22699;-74
2024/02/19 11:16:03;;;;;;;10.70;8.70;;;;;;;7.33;75.49;96837.16;108616;1272;22599;-75
2024/02/19 11:18:39;;;;;;;9.90;7.40;;;;;;;7.48;75.53;96840.61;108587;1270;24233;-75
2024/02/19 11:21:15;;;;;;;9.60;7.30;;;;;;;7.66;75.34;96831.98;108559;1273;25355;-75
2024/02/19 11:23:46;;;;;;;9.00;6.80;;;;;;;7.73;75.22;96830.44;108669;1272;22654;-74
2024/02/19 11:26:18;;;;;;;9.20;5.40;;;;;;;7.79;74.86;96816.08;108648;1270;22561;-75
2024/02/19 11:28:56;;;;;;;9.80;6.20;;;;;;;7.78;74.32;96821.62;108626;1272;22614;-74
2024/02/19 11:31:28;;;;;;;10.20;7.00;;;;;;;7.77;74.23;96814.38;108651;1272;22523;-75
2024/02/19 11:34:00;;;;;;;6.90;4.40;;;;;;;7.86;74.15;96816.44;108644;1269;22534;-75
2024/02/19 11:36:31;;;;;;;7.70;5.00;;;;;;;7.87;73.69;96810.95;108692;1272;23745;-75
2024/02/19 11:39:03;;;;;;;7.00;4.90;;;;;;;7.85;73.66;96808.23;108652;1272;22529;-74
2024/02/19 11:41:34;;;;;;;8.30;5.30;;;;;;;7.79;73.31;96806.15;108653;1268;22759;-75
2024/02/19 11:44:09;;;;;;;5.80;4.80;;;;;;;7.77;73.63;96801.71;108659;1272;22539;-74
2024/02/19 11:46:42;;;;;;;8.00;4.90;;;;;;;7.75;73.58;96801.23;108690;1266;22550;-74
2024/02/19 11:49:17;;;;;;;6.80;4.10;;;;;;;7.73;73.48;96798.25;108642;1268;22550;-75
2024/02/19 11:51:49;;;;;;;5.80;4.70;;;;;;;7.73;73.60;96789.21;108658;1272;22542;-74